Time;durP1;ratioP1;P1;durP2;ratioP2;P2;SDS_P1;SDS_P2;PMS_P1;PMS_P2;Temp;Humidity;BMP_temperature;BMP_pressure;BME280_temperature;BME280_humidity;BME280_pressure;Samples;Min_cycle;Max_cycle;Signal;HPM_P1;HPM_P2
2022/10/02 00:02:25;;;;;;;5.20;2.52;;;;;;;14.18;100.00;96903.78;1844346;77;20861;-55
2022/10/02 00:05:04;;;;;;;3.77;2.40;;;;;;;14.14;100.00;96903.45;1834844;77;21233;-55
2022/10/02 00:07:52;;;;;;;5.78;2.90;;;;;;;14.10;100.00;96908.75;1829933;77;20912;-57
2022/10/02 00:10:34;;;;;;;4.37;2.87;;;;;;;14.06;100.00;96905.72;1836980;77;20888;-55
2022/10/02 00:13:05;;;;;;;4.25;2.12;;;;;;;14.02;100.00;96917.72;1837318;77;20959;-55
2022/10/02 00:15:34;;;;;;;4.33;1.85;;;;;;;13.98;100.00;96910.09;1836870;77;20962;-56
2022/10/02 00:18:06;;;;;;;4.17;2.00;;;;;;;13.97;100.00;96911.77;1834751;77;21090;-56
2022/10/02 00:20:47;;;;;;;6.22;2.58;;;;;;;13.97;100.00;96911.77;1840864;77;20965;-56
2022/10/02 00:23:22;;;;;;;5.03;1.95;;;;;;;13.95;100.00;96897.86;1844151;77;20943;-56
2022/10/02 00:25:54;;;;;;;5.15;2.10;;;;;;;13.90;100.00;96905.60;1834015;77;20939;-56
2022/10/02 00:28:47;;;;;;;4.28;1.67;;;;;;;13.84;100.00;96911.55;1811898;79;21473;-56
2022/10/02 00:31:33;;;;;;;5.35;1.98;;;;;;;13.78;100.00;96908.88;1797943;79;21252;-56
2022/10/02 00:34:32;;;;;;;3.25;1.98;;;;;;;13.73;100.00;96906.61;1803567;79;20955;-56
2022/10/02 00:37:22;;;;;;;3.02;1.60;;;;;;;13.71;100.00;96906.17;1840770;77;20919;-56
2022/10/02 00:40:25;;;;;;;4.25;1.57;;;;;;;13.66;100.00;96902.34;1842303;77;20900;-55
2022/10/02 00:43:11;;;;;;;2.83;1.57;;;;;;;13.62;100.00;96885.31;1839713;77;20877;-55
2022/10/02 00:46:08;;;;;;;2.70;1.60;;;;;;;13.59;100.00;96894.05;1836435;77;21206;-55
2022/10/02 00:49:03;;;;;;;4.10;1.60;;;;;;;13.57;100.00;96901.67;1840765;77;21422;-55
2022/10/02 00:52:08;;;;;;;2.42;1.30;;;;;;;13.54;100.00;96905.02;1803348;79;20861;-55
2022/10/02 00:55:08;;;;;;;3.47;1.70;;;;;;;13.47;100.00;96906.14;1803516;79;20964;-57
2022/10/02 00:58:09;;;;;;;4.85;2.00;;;;;;;13.42;100.00;96913.11;1841172;77;20967;-57
2022/10/02 01:00:36;;;;;;;3.70;1.60;;;;;;;13.40;100.00;96915.31;1852296;77;21671;-57
2022/10/02 01:03:17;;;;;;;4.42;1.72;;;;;;;13.41;100.00;96923.63;1840174;77;21501;-56
2022/10/02 01:05:45;;;;;;;6.37;1.50;;;;;;;13.38;100.00;96922.94;1837133;77;20955;-56
2022/10/02 01:08:11;;;;;;;2.92;1.20;;;;;;;13.33;100.00;96924.49;1845779;77;21082;-56
2022/10/02 01:10:39;;;;;;;1.42;1.32;;;;;;;13.31;100.00;96931.32;1839681;77;20900;-56
2022/10/02 01:13:06;;;;;;;1.27;1.10;;;;;;;13.28;100.00;96923.39;1841009;77;21439;-56
2022/10/02 01:15:36;;;;;;;2.33;1.00;;;;;;;13.26;100.00;96944.42;1846944;77;20962;-56
2022/10/02 01:18:05;;;;;;;1.52;1.02;;;;;;;13.23;100.00;96928.97;1798431;77;20904;-56
2022/10/02 01:20:40;;;;;;;1.37;1.10;;;;;;;13.22;100.00;96923.91;1807703;77;20971;-56
2022/10/02 01:23:16;;;;;;;;;;;;;;;13.19;100.00;96921.32;1839505;77;20876;-55
2022/10/02 01:25:43;;;;;;;1.82;1.37;;;;;;;13.12;100.00;96923.00;1848809;77;21197;-56
2022/10/02 01:28:10;;;;;;;3.22;1.60;;;;;;;13.06;100.00;96904.94;1835102;77;21438;-56
2022/10/02 01:30:40;;;;;;;1.67;1.57;;;;;;;13.00;100.00;96906.25;1806980;77;20919;-56
2022/10/02 01:33:07;;;;;;;1.70;1.60;;;;;;;12.97;100.00;96913.08;1849028;77;20849;-56
2022/10/02 01:35:36;;;;;;;2.45;1.87;;;;;;;12.95;100.00;96911.83;1807610;78;21007;-56
2022/10/02 01:38:07;;;;;;;3.00;2.30;;;;;;;12.91;100.00;96917.62;1841176;77;21121;-56
2022/10/02 01:40:36;;;;;;;3.95;2.00;;;;;;;12.84;100.00;96911.98;1846590;77;20928;-56
2022/10/02 01:43:18;;;;;;;2.80;2.47;;;;;;;12.82;100.00;96919.60;1843385;77;20907;-56
2022/10/02 01:46:11;;;;;;;2.60;2.40;;;;;;;12.80;100.00;96930.69;1830381;77;20873;-56
2022/10/02 01:48:43;;;;;;;3.65;2.85;;;;;;;12.78;100.00;96931.58;1841194;77;20873;-56
2022/10/02 01:51:15;;;;;;;4.40;2.90;;;;;;;12.78;100.00;96946.91;1847964;77;21082;-56
2022/10/02 01:53:54;;;;;;;4.67;3.27;;;;;;;12.76;100.00;96946.45;1845796;77;20880;-56
2022/10/02 01:56:45;;;;;;;3.87;2.77;;;;;;;12.75;100.00;96959.65;1848685;77;21438;-56
2022/10/02 01:59:26;;;;;;;3.02;2.55;;;;;;;12.69;100.00;96949.67;1843610;77;20930;-55
2022/10/02 02:01:58;;;;;;;3.77;3.17;;;;;;;12.61;100.00;96973.91;1841119;77;20928;-55
2022/10/02 02:04:29;;;;;;;4.83;2.80;;;;;;;12.48;100.00;96974.95;1844108;77;21120;-54
2022/10/02 02:07:10;;;;;;;4.87;2.83;;;;;;;12.33;100.00;96983.81;1834252;77;20923;-55
2022/10/02 02:09:56;;;;;;;3.60;2.90;;;;;;;12.21;100.00;96989.09;1849177;77;20860;-56
2022/10/02 02:12:43;;;;;;;4.00;3.20;;;;;;;12.04;100.00;96985.69;1837789;77;21405;-56
2022/10/02 02:15:24;;;;;;;5.55;3.12;;;;;;;11.92;100.00;96993.09;1841081;77;20861;-57
2022/10/02 02:18:08;;;;;;;3.87;3.35;;;;;;;11.85;100.00;96991.46;1851894;77;21097;-55
2022/10/02 02:20:39;;;;;;;4.67;4.00;;;;;;;11.82;100.00;97000.72;1848289;77;20872;-56
2022/10/02 02:23:11;;;;;;;7.65;3.65;;;;;;;11.78;100.00;96991.17;1830754;77;20892;-55
2022/10/02 02:25:42;;;;;;;4.33;3.90;;;;;;;11.76;100.00;96986.69;1844617;77;20923;-55
2022/10/02 02:28:11;;;;;;;5.62;4.03;;;;;;;11.77;100.00;96977.55;1841637;77;20903;-56
2022/10/02 02:30:41;;;;;;;8.58;4.40;;;;;;;11.78;100.00;96981.78;1834905;77;21105;-55
2022/10/02 02:33:19;;;;;;;6.35;4.00;;;;;;;11.79;100.00;96980.69;1848335;77;20821;-55
2022/10/02 02:35:53;;;;;;;6.72;3.92;;;;;;;11.80;100.00;96979.56;1849052;77;20899;-56
2022/10/02 02:38:32;;;;;;;6.37;4.15;;;;;;;11.77;100.00;96985.59;1839646;77;20845;-56
2022/10/02 02:41:04;;;;;;;8.83;4.95;;;;;;;11.75;100.00;96974.40;1838508;77;21375;-54
2022/10/02 02:43:35;;;;;;;6.70;4.30;;;;;;;11.74;100.00;96980.86;1830807;77;22005;-55
2022/10/02 02:46:14;;;;;;;4.03;3.62;;;;;;;11.75;100.00;96973.61;1817519;77;20942;-55
2022/10/02 02:48:47;;;;;;;4.08;3.30;;;;;;;11.72;100.00;96978.27;1852353;77;20829;-56
2022/10/02 02:51:31;;;;;;;5.15;4.05;;;;;;;11.71;100.00;96981.49;1849142;77;20880;-55
2022/10/02 02:54:27;;;;;;;4.53;3.80;;;;;;;11.69;100.00;96977.01;1839864;77;20987;-56
2022/10/02 02:56:55;;;;;;;5.33;3.50;;;;;;;11.68;100.00;96982.16;1816923;77;21108;-56
2022/10/02 02:59:22;;;;;;;3.40;3.10;;;;;;;11.65;100.00;96980.08;1843253;77;20824;-56
2022/10/02 03:01:48;;;;;;;5.28;3.67;;;;;;;11.59;100.00;96979.45;1839136;77;20860;-56
2022/10/02 03:04:15;;;;;;;5.58;3.60;;;;;;;11.54;100.00;96980.20;1836941;77;20923;-55
2022/10/02 03:06:46;;;;;;;3.80;3.20;;;;;;;11.50;100.00;96982.72;1831926;77;20971;-56
2022/10/02 03:09:16;;;;;;;4.50;3.02;;;;;;;11.46;100.00;96979.66;1832501;77;21107;-55
2022/10/02 03:12:06;;;;;;;3.45;3.12;;;;;;;11.45;100.00;96982.09;1831957;77;21358;-55
2022/10/02 03:14:57;;;;;;;3.55;3.20;;;;;;;11.46;100.00;96981.00;1839587;77;21461;-55
2022/10/02 03:17:38;;;;;;;5.75;3.00;;;;;;;11.45;100.00;96976.18;1840292;77;20912;-56
2022/10/02 03:20:34;;;;;;;3.35;3.05;;;;;;;11.44;100.00;96980.53;1849039;77;20919;-56
2022/10/02 03:23:18;;;;;;;4.90;3.80;;;;;;;11.40;100.00;96977.69;1803179;79;26947;-55
2022/10/02 03:25:51;;;;;;;4.10;3.45;;;;;;;11.41;100.00;96971.78;1801138;79;20921;-55
2022/10/02 03:28:37;;;;;;;4.72;3.50;;;;;;;11.42;100.00;96988.88;1808886;79;20971;-56
2022/10/02 03:31:05;;;;;;;5.42;3.30;;;;;;;11.44;100.00;96984.56;1797711;79;21426;-55
2022/10/02 03:33:33;;;;;;;4.97;3.80;;;;;;;11.46;100.00;96978.31;1800845;79;21016;-56
2022/10/02 03:36:01;;;;;;;6.33;3.92;;;;;;;11.45;100.00;96976.18;1779055;79;21105;-56
2022/10/02 03:38:27;;;;;;;4.87;4.28;;;;;;;11.45;100.00;96978.86;1801022;79;20841;-55
2022/10/02 03:40:57;;;;;;;5.15;4.37;;;;;;;11.49;100.00;96983.05;1838230;77;20988;-55
2022/10/02 03:43:26;;;;;;;6.40;4.45;;;;;;;11.49;100.00;96984.39;1854159;77;20967;-55
2022/10/02 03:45:53;;;;;;;5.20;4.30;;;;;;;11.49;100.00;96983.81;1842173;77;20913;-56
2022/10/02 03:48:20;;;;;;;6.20;4.53;;;;;;;11.49;100.00;96984.39;1836400;77;21100;-56
2022/10/02 03:50:49;;;;;;;5.30;4.55;;;;;;;11.49;100.00;96999.91;1840559;77;21410;-56
2022/10/02 03:53:20;;;;;;;7.00;4.60;;;;;;;11.46;100.00;96992.52;1849181;77;21407;-56
2022/10/02 03:56:14;;;;;;;4.67;4.10;;;;;;;11.45;100.00;96995.50;1849277;77;20888;-56
2022/10/02 03:58:45;;;;;;;7.62;4.58;;;;;;;11.43;100.00;96997.17;1839586;77;20867;-56
2022/10/02 04:01:21;;;;;;;7.67;4.85;;;;;;;11.39;100.00;96994.11;1849253;77;21215;-56
2022/10/02 04:04:01;;;;;;;4.75;3.90;;;;;;;11.36;100.00;97004.12;1840538;77;21331;-55
2022/10/02 04:06:36;;;;;;;5.97;4.35;;;;;;;11.30;100.00;97005.41;1849291;77;20899;-56
2022/10/02 04:09:14;;;;;;;4.78;4.15;;;;;;;11.25;100.00;97005.56;1836014;77;20923;-56
2022/10/02 04:12:08;;;;;;;4.90;4.03;;;;;;;11.23;100.00;97007.78;1846151;77;20985;-55
2022/10/02 04:14:40;;;;;;;6.22;3.92;;;;;;;11.23;100.00;97006.44;1836294;77;21734;-55
2022/10/02 04:17:14;;;;;;;6.85;4.08;;;;;;;11.23;100.00;97013.14;1830989;77;20863;-55
2022/10/02 04:19:48;;;;;;;4.35;3.58;;;;;;;11.16;100.00;97020.87;1845655;77;20857;-55
2022/10/02 04:22:36;;;;;;;4.05;3.42;;;;;;;11.09;100.00;97011.98;1844803;77;20958;-55
2022/10/02 04:25:09;;;;;;;3.95;3.50;;;;;;;11.04;100.00;97022.06;1849266;77;21480;-57
2022/10/02 04:27:53;;;;;;;4.97;3.83;;;;;;;11.00;100.00;97027.25;1842456;77;21674;-57
2022/10/02 04:30:20;;;;;;;4.00;3.40;;;;;;;10.96;100.00;97030.33;1841593;77;20873;-56
2022/10/02 04:32:48;;;;;;;4.20;3.55;;;;;;;10.91;100.00;97040.66;1841320;77;21379;-56
2022/10/02 04:35:22;;;;;;;4.15;3.60;;;;;;;10.88;100.00;97037.25;1839145;77;21027;-56
2022/10/02 04:38:18;;;;;;;3.47;3.17;;;;;;;10.86;100.00;97034.11;1800544;79;20996;-56
2022/10/02 04:41:12;;;;;;;4.45;3.27;;;;;;;10.86;100.00;97035.98;1786968;80;21114;-56
2022/10/02 04:44:13;;;;;;;6.95;3.65;;;;;;;10.84;100.00;97037.66;1777095;80;20892;-56
2022/10/02 04:47:12;;;;;;;4.97;3.80;;;;;;;10.86;100.00;97042.14;1762325;80;20856;-56
2022/10/02 04:50:05;;;;;;;3.92;3.52;;;;;;;10.85;100.00;97036.56;1766963;80;20896;-56
2022/10/02 04:53:30;;;;;;;5.25;3.80;;;;;;;10.84;100.00;97041.67;1773011;80;20944;-56
2022/10/02 04:56:19;;;;;;;4.97;3.83;;;;;;;10.83;100.00;97061.52;1841509;77;21235;-56
2022/10/02 04:59:03;;;;;;;5.03;3.60;;;;;;;10.79;100.00;97068.61;1834738;77;20901;-56
2022/10/02 05:01:59;;;;;;;5.08;3.62;;;;;;;10.76;100.00;97071.91;1842461;77;20919;-56
2022/10/02 05:04:56;;;;;;;3.87;3.50;;;;;;;10.73;100.00;97075.23;1844631;77;20875;-56
2022/10/02 05:08:04;;;;;;;5.15;4.17;;;;;;;10.68;100.00;97071.91;1847426;77;20971;-56
2022/10/02 05:11:29;;;;;;;5.60;3.70;;;;;;;10.66;100.00;97075.45;1841737;77;21300;-56
2022/10/02 05:14:34;;;;;;;4.22;3.58;;;;;;;10.67;100.00;97083.16;1849156;77;20928;-56
2022/10/02 05:17:38;;;;;;;7.15;3.65;;;;;;;10.66;100.00;97073.56;1835519;77;21045;-56
2022/10/02 05:20:30;;;;;;;4.08;3.40;;;;;;;10.66;100.00;97078.91;1840390;77;21450;-56
2022/10/02 05:23:05;;;;;;;5.05;4.17;;;;;;;10.65;100.00;97088.58;1847371;77;20856;-56
2022/10/02 05:26:01;;;;;;;4.30;3.90;;;;;;;10.66;100.00;97089.63;1840003;77;21524;-56
2022/10/02 05:28:53;;;;;;;5.53;4.43;;;;;;;10.66;100.00;97092.85;1848433;77;20861;-56
2022/10/02 05:32:15;;;;;;;5.30;4.40;;;;;;;10.68;100.00;97105.37;1834071;77;21399;-56
2022/10/02 05:34:47;;;;;;;4.58;4.17;;;;;;;10.68;100.00;97101.36;1849091;77;20844;-55
2022/10/02 05:37:34;;;;;;;6.25;5.08;;;;;;;10.67;100.00;97098.45;1839383;77;21452;-55
2022/10/02 05:40:24;;;;;;;5.53;4.83;;;;;;;10.68;100.00;97113.41;1841777;77;21320;-55
2022/10/02 05:43:13;;;;;;;5.87;4.60;;;;;;;10.68;100.00;97114.20;1840121;77;20942;-55
2022/10/02 05:45:56;;;;;;;5.60;5.10;;;;;;;10.70;100.00;97120.58;1832605;77;20855;-55
2022/10/02 05:48:26;;;;;;;6.95;5.40;;;;;;;10.68;100.00;97115.55;1837949;77;20967;-56
2022/10/02 05:51:07;;;;;;;5.22;4.72;;;;;;;10.67;100.00;97120.65;1838544;77;20975;-55
2022/10/02 05:53:57;;;;;;;8.23;5.35;;;;;;;10.65;100.00;97124.19;1851067;77;21958;-56
2022/10/02 05:56:38;;;;;;;6.78;4.80;;;;;;;10.62;100.00;97122.13;1848429;77;20982;-56
2022/10/02 05:59:29;;;;;;;5.72;5.22;;;;;;;10.59;100.00;97125.45;1836219;77;20903;-56
2022/10/02 06:01:56;;;;;;;5.50;4.80;;;;;;;10.57;100.00;97122.30;1807959;78;20885;-57
2022/10/02 06:04:36;;;;;;;5.97;4.70;;;;;;;10.56;100.00;97131.41;1851007;77;21466;-56
2022/10/02 06:07:12;;;;;;;6.00;5.22;;;;;;;10.57;100.00;97135.69;1835716;77;21093;-56
2022/10/02 06:09:44;;;;;;;6.55;5.28;;;;;;;10.59;100.00;97138.04;1843401;77;20832;-55
2022/10/02 06:12:25;;;;;;;6.55;4.90;;;;;;;10.57;100.00;97150.41;1846488;77;20903;-57
2022/10/02 06:15:02;;;;;;;7.87;4.67;;;;;;;10.54;100.00;97134.95;1842213;77;20892;-57
2022/10/02 06:17:34;;;;;;;7.53;4.85;;;;;;;10.54;100.00;97134.16;1844485;77;21338;-57
2022/10/02 06:20:06;;;;;;;9.03;4.97;;;;;;;10.55;100.00;97132.50;1842453;77;21083;-57
2022/10/02 06:22:47;;;;;;;5.25;4.50;;;;;;;10.57;100.00;97134.34;1844061;77;20962;-55
2022/10/02 06:25:27;;;;;;;6.47;4.67;;;;;;;10.61;100.00;97138.52;1844332;77;20912;-56
2022/10/02 06:28:33;;;;;;;4.62;4.12;;;;;;;10.67;100.00;97144.75;1845175;77;21434;-56
2022/10/02 06:31:23;;;;;;;5.58;4.50;;;;;;;10.72;100.00;97142.48;1845110;77;20868;-56
2022/10/02 06:33:51;;;;;;;4.85;3.80;;;;;;;10.76;100.00;97140.78;1844340;77;21811;-55
2022/10/02 06:36:37;;;;;;;4.62;3.83;;;;;;;10.78;100.00;97142.59;1843221;77;21429;-56
2022/10/02 06:39:30;;;;;;;4.12;3.52;;;;;;;10.78;100.00;97143.39;1828112;77;20871;-56
2022/10/02 06:42:48;;;;;;;6.95;4.15;;;;;;;10.78;100.00;97152.77;1852378;77;21379;-56
2022/10/02 06:45:59;;;;;;;5.12;3.92;;;;;;;10.76;100.00;97152.25;1820182;77;20888;-55
2022/10/02 06:48:53;;;;;;;4.78;3.65;;;;;;;10.72;100.00;97158.55;1849037;77;21261;-55
2022/10/02 06:52:03;;;;;;;5.62;4.00;;;;;;;10.68;100.00;97159.73;1841700;77;20872;-56
2022/10/02 06:54:52;;;;;;;4.10;3.70;;;;;;;10.63;100.00;97165.23;1848990;77;20872;-55
2022/10/02 06:57:52;;;;;;;3.98;3.00;;;;;;;10.57;100.00;97159.78;1847485;77;20886;-55
2022/10/02 07:00:20;;;;;;;4.45;3.40;;;;;;;10.55;100.00;97161.19;1843589;77;20872;-56
2022/10/02 07:03:21;;;;;;;3.20;2.87;;;;;;;10.52;100.00;97169.29;1844375;77;21741;-55
2022/10/02 07:06:27;;;;;;;3.33;2.80;;;;;;;10.52;100.00;97173.30;1840465;77;20948;-57
2022/10/02 07:09:05;;;;;;;3.27;2.98;;;;;;;10.54;100.00;97171.10;1841052;77;20911;-56
2022/10/02 07:12:02;;;;;;;3.20;2.80;;;;;;;10.53;100.00;97166.06;1842707;77;20955;-57
2022/10/02 07:15:08;;;;;;;5.17;2.60;;;;;;;10.52;100.00;97181.34;1836853;77;20910;-57
2022/10/02 07:17:56;;;;;;;5.72;2.92;;;;;;;10.51;100.00;97174.39;1841104;77;21231;-55
2022/10/02 07:21:08;;;;;;;4.92;2.62;;;;;;;10.53;100.00;97181.56;1838458;77;20964;-57
2022/10/02 07:23:45;;;;;;;2.50;2.25;;;;;;;10.57;100.00;97177.73;1847490;77;21442;-55
2022/10/02 07:26:44;;;;;;;3.25;2.40;;;;;;;10.58;100.00;97188.13;1809189;79;21003;-58
2022/10/02 07:29:32;;;;;;;3.35;2.60;;;;;;;10.61;100.00;97187.52;1809006;79;20935;-57
2022/10/02 07:32:22;;;;;;;3.52;2.40;;;;;;;10.65;100.00;97189.80;1809010;79;21117;-55
2022/10/02 07:35:07;;;;;;;2.72;2.33;;;;;;;10.61;100.00;97192.88;1801543;79;20964;-55
2022/10/02 07:37:58;;;;;;;3.40;2.40;;;;;;;10.55;100.00;97183.38;1851539;77;20896;-56
2022/10/02 07:41:03;;;;;;;3.72;2.70;;;;;;;10.49;100.00;97192.66;1843200;77;20902;-56
2022/10/02 07:43:50;;;;;;;2.30;2.10;;;;;;;10.45;100.00;97183.67;1849568;77;20903;-57
2022/10/02 07:46:44;;;;;;;2.80;2.37;;;;;;;10.45;100.00;97189.02;1808484;77;21180;-58
2022/10/02 07:49:25;;;;;;;4.87;2.50;;;;;;;10.46;100.00;97187.14;1848908;77;21383;-55
2022/10/02 07:52:00;;;;;;;3.62;2.00;;;;;;;10.45;100.00;97189.02;1844219;77;20943;-56
2022/10/02 07:54:44;;;;;;;2.10;1.90;;;;;;;10.44;100.00;97194.67;1848497;77;20940;-56
2022/10/02 07:57:29;;;;;;;1.87;1.67;;;;;;;10.41;100.00;97188.04;1834557;77;20845;-56
2022/10/02 08:00:06;;;;;;;2.42;1.57;;;;;;;10.42;100.00;97181.60;1824598;77;21237;-57
2022/10/02 08:03:03;;;;;;;1.70;1.60;;;;;;;10.41;100.00;97181.34;1837197;78;20909;-56
2022/10/02 08:05:44;;;;;;;1.60;1.40;;;;;;;10.41;100.00;97182.69;1847173;77;20911;-56
2022/10/02 08:08:28;;;;;;;1.55;1.37;;;;;;;10.37;100.00;97184.41;1837882;77;20893;-55
2022/10/02 08:11:04;;;;;;;1.72;1.62;;;;;;;10.36;100.00;97190.08;1839777;77;20956;-56
2022/10/02 08:13:35;;;;;;;1.82;1.62;;;;;;;10.36;100.00;97180.17;1825511;77;21204;-55
2022/10/02 08:16:03;;;;;;;3.25;1.70;;;;;;;10.35;100.00;97189.28;1799397;79;20953;-55
2022/10/02 08:18:41;;;;;;;3.58;1.67;;;;;;;10.37;100.00;97183.07;1796148;79;21023;-55
2022/10/02 08:21:17;;;;;;;1.67;1.40;;;;;;;10.39;100.00;97191.58;1803393;78;20970;-55
2022/10/02 08:24:01;;;;;;;3.10;1.80;;;;;;;10.39;100.00;97186.80;1812629;78;20968;-56
2022/10/02 08:26:33;;;;;;;2.42;1.90;;;;;;;10.38;100.00;97194.03;1804405;79;21674;-57
2022/10/02 08:29:10;;;;;;;2.45;2.05;;;;;;;10.37;100.00;97187.09;1802095;79;21336;-56
2022/10/02 08:31:37;;;;;;;2.98;1.72;;;;;;;10.35;100.00;97193.30;1859375;77;20868;-55
2022/10/02 08:34:16;;;;;;;5.12;2.33;;;;;;;10.34;100.00;97191.70;1844252;77;20864;-55
2022/10/02 08:37:14;;;;;;;2.75;2.40;;;;;;;10.36;100.00;97196.23;1844923;77;21476;-55
2022/10/02 08:40:13;;;;;;;4.22;2.37;;;;;;;10.32;100.00;97187.21;1848519;77;21414;-56
2022/10/02 08:43:16;;;;;;;2.80;2.08;;;;;;;10.30;100.00;97192.09;1849076;77;20817;-56
2022/10/02 08:46:01;;;;;;;3.83;2.47;;;;;;;10.23;100.00;97199.77;1831284;77;21031;-56
2022/10/02 08:48:48;;;;;;;3.10;2.60;;;;;;;10.22;100.00;97192.84;1835662;77;21399;-56
2022/10/02 08:51:49;;;;;;;3.42;2.62;;;;;;;10.23;100.00;97205.11;1844390;77;20993;-56
2022/10/02 08:54:49;;;;;;;3.77;3.08;;;;;;;10.21;100.00;97203.30;1849096;77;21002;-55
2022/10/02 08:57:25;;;;;;;4.72;2.67;;;;;;;10.20;100.00;97211.07;1849112;77;20911;-56
2022/10/02 09:00:25;;;;;;;3.60;2.92;;;;;;;10.25;100.00;97211.74;1833941;77;20908;-55
2022/10/02 09:03:38;;;;;;;4.80;2.92;;;;;;;10.29;100.00;97210.59;1843465;77;20959;-55
2022/10/02 09:06:51;;;;;;;3.08;2.77;;;;;;;10.32;100.00;97213.98;1849226;77;20963;-55
2022/10/02 09:09:45;;;;;;;4.28;3.00;;;;;;;10.31;100.00;97213.75;1804055;79;21175;-55
2022/10/02 09:12:57;;;;;;;4.35;3.20;;;;;;;10.28;100.00;97216.49;1858404;77;21029;-55
2022/10/02 09:15:37;;;;;;;3.35;2.87;;;;;;;10.28;100.00;97220.51;1832875;77;20974;-56
2022/10/02 09:18:34;;;;;;;3.87;3.10;;;;;;;10.29;100.00;97223.98;1832416;77;20879;-56
2022/10/02 09:21:19;;;;;;;4.78;3.30;;;;;;;10.36;100.00;97220.86;1837486;77;20860;-56
2022/10/02 09:24:06;;;;;;;4.20;3.15;;;;;;;10.45;100.00;97216.34;1848585;77;21426;-56
2022/10/02 09:27:03;;;;;;;3.42;3.05;;;;;;;10.57;100.00;97214.67;1831758;77;20908;-57
2022/10/02 09:29:57;;;;;;;4.15;2.95;;;;;;;10.69;100.00;97218.87;1852934;77;20879;-55
2022/10/02 09:33:07;;;;;;;4.83;3.52;;;;;;;10.73;100.00;97216.39;1837895;77;20936;-57
2022/10/02 09:36:00;;;;;;;2.87;2.40;;;;;;;10.78;100.00;97222.41;1845995;77;20928;-56
2022/10/02 09:38:56;;;;;;;3.87;2.60;;;;;;;10.74;100.00;97213.39;1821445;77;21308;-57
2022/10/02 09:42:02;;;;;;;5.17;3.10;;;;;;;10.78;100.00;97219.73;1839978;77;20816;-57
2022/10/02 09:44:58;;;;;;;3.25;2.90;;;;;;;10.81;100.00;97224.44;1849379;77;21367;-56
2022/10/02 09:48:08;;;;;;;4.30;2.62;;;;;;;10.86;100.00;97212.25;1844477;77;20947;-57
2022/10/02 09:51:03;;;;;;;7.55;2.75;;;;;;;10.92;100.00;97216.93;1804473;79;21469;-55
2022/10/02 09:53:50;;;;;;;4.70;2.95;;;;;;;10.97;100.00;97211.44;1796158;79;21828;-56
2022/10/02 09:56:38;;;;;;;6.58;3.10;;;;;;;11.04;100.00;97208.30;1845254;77;20864;-55
2022/10/02 09:59:58;;;;;;;4.40;2.65;;;;;;;11.09;100.00;97210.83;1836415;77;20962;-55
2022/10/02 10:03:05;;;;;;;5.10;2.95;;;;;;;11.16;100.00;97216.52;1795347;79;20979;-56
2022/10/02 10:05:47;;;;;;;5.47;3.02;;;;;;;11.19;100.00;97208.63;1803080;79;20963;-56
2022/10/02 10:09:01;;;;;;;4.30;3.00;;;;;;;11.25;100.00;97198.56;1798747;79;22013;-56
2022/10/02 10:12:07;;;;;;;5.28;3.10;;;;;;;11.34;100.00;97202.05;1812981;78;20900;-57
2022/10/02 10:15:11;;;;;;;3.90;2.53;;;;;;;11.46;100.00;97196.31;1811229;78;21022;-56
2022/10/02 10:17:58;;;;;;;3.42;2.80;;;;;;;11.50;100.00;97201.27;1809533;78;21024;-57
2022/10/02 10:21:05;;;;;;;4.83;2.85;;;;;;;11.48;99.77;97218.78;1808984;79;20936;-55
2022/10/02 10:24:05;;;;;;;4.83;2.65;;;;;;;11.46;99.45;97215.62;1808961;79;21730;-55
2022/10/02 10:26:53;;;;;;;5.65;2.50;;;;;;;11.43;98.84;97202.84;1808900;79;20865;-56
2022/10/02 10:29:38;;;;;;;2.85;2.50;;;;;;;11.41;98.25;97209.07;1804097;79;20879;-56
2022/10/02 10:32:29;;;;;;;4.72;2.10;;;;;;;11.43;97.97;97203.63;1838024;77;27498;-55
2022/10/02 10:35:10;;;;;;;2.45;2.20;;;;;;;11.51;97.62;97207.43;1840908;77;21435;-58
2022/10/02 10:41:11;;;;;;;4.40;2.47;;;;;;;11.61;97.02;97209.81;1806129;78;21005;-57
2022/10/02 10:44:30;;;;;;;4.20;2.37;;;;;;;11.64;96.51;97206.48;1817282;78;21395;-55
2022/10/02 10:47:26;;;;;;;5.83;2.60;;;;;;;11.75;97.51;97207.80;1800712;78;20971;-55
2022/10/02 10:50:18;;;;;;;5.62;2.60;;;;;;;11.89;95.52;97192.31;1837812;77;21154;-56
2022/10/02 10:53:27;;;;;;;3.25;2.00;;;;;;;11.99;93.54;97194.65;1843910;77;21115;-55
2022/10/02 10:56:18;;;;;;;4.25;2.02;;;;;;;12.07;91.57;97188.49;1775675;79;21082;-56
2022/10/02 10:59:28;;;;;;;4.70;1.98;;;;;;;12.08;90.89;97199.45;1849228;77;20916;-55
2022/10/02 11:02:12;;;;;;;3.42;2.05;;;;;;;12.11;90.24;97197.48;1837159;77;20923;-55
2022/10/02 11:05:17;;;;;;;4.28;1.90;;;;;;;12.17;90.72;97191.40;1847554;77;20876;-56
2022/10/02 11:08:18;;;;;;;3.65;2.08;;;;;;;12.19;89.02;97191.86;1849111;77;21641;-55
2022/10/02 11:11:19;;;;;;;4.25;2.30;;;;;;;12.16;90.01;97197.31;1810642;77;20962;-56
2022/10/02 11:14:16;;;;;;;4.55;2.30;;;;;;;12.14;89.57;97200.88;1840237;77;20958;-56
2022/10/02 11:17:21;;;;;;;5.05;2.17;;;;;;;12.17;90.00;97204.27;1842678;77;20967;-56
2022/10/02 11:20:31;;;;;;;6.00;2.42;;;;;;;12.20;89.13;97202.84;1839164;77;20848;-56
2022/10/02 11:23:12;;;;;;;5.40;2.52;;;;;;;12.26;89.75;97196.98;1835932;77;22078;-55
2022/10/02 11:26:13;;;;;;;3.83;2.08;;;;;;;12.43;88.80;97202.07;1848658;77;20861;-56
2022/10/02 11:29:01;;;;;;;3.95;2.30;;;;;;;12.53;88.21;97203.08;1842152;77;20944;-57
2022/10/02 11:31:56;;;;;;;3.40;1.82;;;;;;;12.67;87.73;97196.94;1842225;77;20884;-56
2022/10/02 11:35:00;;;;;;;3.67;2.30;;;;;;;12.94;86.71;97201.86;1839505;77;21451;-56
2022/10/02 11:38:02;;;;;;;3.52;1.85;;;;;;;13.17;86.97;97208.56;1856494;77;21230;-55
2022/10/02 11:40:44;;;;;;;2.50;1.70;;;;;;;13.26;85.35;97193.74;1843789;77;21430;-56
2022/10/02 11:43:37;;;;;;;3.55;1.98;;;;;;;13.24;85.63;97192.70;1844134;77;20895;-55
2022/10/02 11:46:26;;;;;;;6.83;2.08;;;;;;;13.17;84.25;97211.80;1840772;77;20931;-56
2022/10/02 11:49:31;;;;;;;5.78;1.72;;;;;;;13.02;85.40;97195.67;1839296;77;20958;-56
2022/10/02 11:52:22;;;;;;;2.77;1.72;;;;;;;12.91;85.59;97199.27;1844863;77;22003;-56
2022/10/02 11:55:10;;;;;;;7.22;2.05;;;;;;;12.77;86.21;97204.62;1835885;77;20832;-55
2022/10/02 11:57:58;;;;;;;3.12;1.90;;;;;;;12.57;87.14;97204.80;1830754;77;20954;-56
2022/10/02 12:01:04;;;;;;;2.62;1.70;;;;;;;12.44;88.46;97204.42;1838291;77;21002;-56
2022/10/02 12:03:58;;;;;;;4.40;1.98;;;;;;;12.36;89.56;97201.23;1845608;77;26740;-56
2022/10/02 12:06:54;;;;;;;7.75;2.80;;;;;;;12.30;90.19;97203.28;1842860;77;21804;-56
2022/10/02 12:10:01;;;;;;;4.70;2.05;;;;;;;12.23;91.14;97199.50;1838586;77;20869;-56
2022/10/02 12:12:50;;;;;;;4.55;1.90;;;;;;;12.17;92.01;97203.48;1799009;77;20990;-56
2022/10/02 12:15:40;;;;;;;3.10;2.37;;;;;;;12.08;93.03;97195.42;1844212;77;21439;-57
2022/10/02 12:18:18;;;;;;;3.22;2.45;;;;;;;12.03;94.44;97205.55;1858512;77;20872;-56
2022/10/02 12:27:41;;;;;;;4.08;3.05;;;;;;;11.76;97.46;97208.56;1836219;77;20908;-57
2022/10/02 12:30:18;;;;;;;4.08;2.80;;;;;;;11.70;98.66;97209.28;1837137;77;20907;-56
2022/10/02 12:33:32;;;;;;;5.28;3.35;;;;;;;11.66;99.52;97213.11;1799047;79;21062;-57
2022/10/02 12:36:32;;;;;;;4.20;3.00;;;;;;;11.65;100.00;97218.80;1803365;79;21243;-57
2022/10/02 12:39:34;;;;;;;5.03;3.08;;;;;;;11.62;100.00;97219.42;1847409;77;20884;-57
2022/10/02 12:42:25;;;;;;;2.67;1.65;;;;;;;11.60;100.00;97225.11;1831623;77;20876;-57
2022/10/02 12:45:34;;;;;;;4.42;2.05;;;;;;;11.58;100.00;97226.52;1851579;77;20916;-57
2022/10/02 12:48:30;;;;;;;3.50;2.22;;;;;;;11.55;100.00;97220.44;1849247;77;20880;-56
2022/10/02 12:51:33;;;;;;;3.23;1.90;;;;;;;11.57;100.00;97223.59;1838537;77;22127;-57
2022/10/02 12:54:42;;;;;;;3.17;1.60;;;;;;;11.65;100.00;97218.80;1841629;77;20876;-56
2022/10/02 12:57:54;;;;;;;2.15;1.60;;;;;;;11.74;100.00;97214.25;1846906;77;20907;-55
2022/10/02 13:00:41;;;;;;;2.77;1.70;;;;;;;11.76;100.00;97212.03;1847576;77;21403;-55
2022/10/02 13:03:49;;;;;;;2.62;1.47;;;;;;;11.71;100.00;97220.23;1844403;77;20908;-55
2022/10/02 13:07:09;;;;;;;3.60;1.60;;;;;;;11.68;100.00;97217.41;1849210;77;21171;-57
2022/10/02 13:10:20;;;;;;;2.50;1.37;;;;;;;11.67;100.00;97211.22;1849059;77;20967;-56